Time;durP1;ratioP1;P1;durP2;ratioP2;P2;SDS_P1;SDS_P2;PMS_P1;PMS_P2;Temp;Humidity;BMP_temperature;BMP_pressure;BME280_temperature;BME280_humidity;BME280_pressure;Samples;Min_cycle;Max_cycle;Signal;HPM_P1;HPM_P2
2022/08/13 00:00:32;;;;;;;5.65;3.92;;;22.70;99.90;;;;;;4999641;28;20033;-46
2022/08/13 00:02:59;;;;;;;7.97;3.67;;;22.60;99.50;;;;;;5042592;28;20488;-48
2022/08/13 00:05:26;;;;;;;6.70;3.60;;;22.40;99.90;;;;;;5051296;28;20055;-49
2022/08/13 00:07:53;;;;;;;8.55;3.45;;;22.40;99.90;;;;;;5051039;28;20035;-48
2022/08/13 00:10:28;;;;;;;5.40;3.33;;;22.30;99.90;;;;;;5051061;28;20094;-47
2022/08/13 00:12:57;;;;;;;6.85;3.50;;;22.20;99.90;;;;;;5049820;28;20499;-49
2022/08/13 00:15:29;;;;;;;6.28;3.83;;;;;;;;;;5051525;28;20029;-49
2022/08/13 00:18:08;;;;;;;5.45;3.63;;;21.90;99.90;;;;;;5051187;28;20111;-48
2022/08/13 00:20:40;;;;;;;5.93;3.60;;;21.90;99.90;;;;;;5051115;28;20048;-46
2022/08/13 00:23:09;;;;;;;8.10;4.45;;;21.90;99.90;;;;;;5046941;28;20534;-48
2022/08/13 00:25:35;;;;;;;7.63;3.85;;;21.80;99.90;;;;;;5051100;28;20036;-47
2022/08/13 00:28:04;;;;;;;6.10;4.50;;;21.80;99.90;;;;;;5040362;28;20077;-47
2022/08/13 00:30:33;;;;;;;6.72;4.07;;;21.70;99.90;;;;;;5020317;28;20072;-45
2022/08/13 00:33:06;;;;;;;5.47;4.05;;;21.60;99.90;;;;;;5011827;28;20120;-49
2022/08/13 00:35:35;;;;;;;7.63;4.25;;;21.60;99.90;;;;;;5015931;28;20511;-48
2022/08/13 00:38:01;;;;;;;7.82;4.93;;;21.60;99.90;;;;;;5018658;28;20367;-47
2022/08/13 00:40:29;;;;;;;6.45;3.90;;;21.50;99.90;;;;;;5020265;28;20065;-48
2022/08/13 00:43:02;;;;;;;7.32;4.40;;;;;;;;;;5020578;28;20041;-47
2022/08/13 00:45:29;;;;;;;6.68;4.00;;;21.40;99.90;;;;;;5020502;28;20049;-48
2022/08/13 00:50:39;;;;;;;7.68;4.40;;;21.30;99.90;;;;;;5019109;28;20097;-48
2022/08/13 00:53:05;;;;;;;6.88;4.60;;;21.40;99.90;;;;;;5020020;28;20105;-48
2022/08/13 00:55:31;;;;;;;6.40;4.85;;;21.30;99.90;;;;;;5020481;28;20049;-47
2022/08/13 00:57:58;;;;;;;6.00;4.43;;;21.30;99.90;;;;;;5011523;28;20092;-46
2022/08/13 01:00:27;;;;;;;5.97;4.40;;;21.30;99.90;;;;;;5023266;28;20040;-48
2022/08/13 01:02:54;;;;;;;6.80;4.78;;;21.30;99.90;;;;;;5055051;28;20028;-48
2022/08/13 01:05:20;;;;;;;5.10;4.60;;;21.20;99.90;;;;;;5054656;28;20093;-48
2022/08/13 01:07:46;;;;;;;5.95;4.88;;;21.20;99.90;;;;;;5054599;28;20075;-48
2022/08/13 01:10:14;;;;;;;9.90;4.53;;;21.30;99.90;;;;;;5054269;28;20564;-48
2022/08/13 01:12:41;;;;;;;12.88;4.75;;;21.20;99.90;;;;;;5054369;28;20484;-47
2022/08/13 01:15:13;;;;;;;7.13;5.00;;;21.20;99.90;;;;;;5054134;28;20083;-49
2022/08/13 01:17:45;;;;;;;6.95;4.45;;;21.20;99.90;;;;;;5055132;28;20033;-47
2022/08/13 01:20:21;;;;;;;6.75;4.72;;;21.20;99.90;;;;;;5054211;28;20048;-46
2022/08/13 01:22:49;;;;;;;7.55;5.38;;;21.20;99.90;;;;;;5050368;28;20401;-48
2022/08/13 01:25:16;;;;;;;6.35;4.03;;;21.20;99.90;;;;;;5053968;28;20036;-49
2022/08/13 01:27:43;;;;;;;5.93;4.45;;;21.10;99.90;;;;;;5054265;28;20064;-45
2022/08/13 01:30:14;;;;;;;7.05;5.05;;;21.20;99.90;;;;;;5053810;28;20044;-47
2022/08/13 01:32:40;;;;;;;6.38;4.30;;;21.10;99.90;;;;;;5054817;28;20031;-47
2022/08/13 01:35:07;;;;;;;8.40;4.63;;;21.00;99.90;;;;;;5053870;28;20037;-48
2022/08/13 01:37:37;;;;;;;7.78;4.82;;;20.90;99.90;;;;;;5054710;28;20059;-48
2022/08/13 01:40:05;;;;;;;7.93;4.95;;;21.00;99.90;;;;;;5053697;28;20428;-46
2022/08/13 01:42:41;;;;;;;7.63;5.22;;;20.90;99.90;;;;;;5053822;28;20029;-47
2022/08/13 01:45:08;;;;;;;6.18;4.30;;;20.90;99.90;;;;;;5053910;28;20070;-46
2022/08/13 01:50:29;;;;;;;7.88;4.88;;;20.80;99.90;;;;;;5045376;28;20048;-47
2022/08/13 01:53:16;;;;;;;5.97;4.85;;;20.80;99.90;;;;;;5045191;28;20116;-47
2022/08/13 01:55:52;;;;;;;7.95;5.13;;;20.80;99.90;;;;;;5053031;28;20060;-46
2022/08/13 01:58:22;;;;;;;6.43;5.53;;;20.80;99.90;;;;;;5053131;28;20692;-46
2022/08/13 02:00:52;;;;;;;5.28;4.68;;;20.70;99.90;;;;;;5053551;28;20107;-46
2022/08/13 02:03:19;;;;;;;5.95;4.45;;;20.70;99.90;;;;;;5053426;28;20086;-49
2022/08/13 02:05:49;;;;;;;5.95;4.55;;;20.70;99.90;;;;;;5052615;28;20028;-48
2022/08/13 02:08:20;;;;;;;7.55;4.43;;;20.70;99.90;;;;;;5053501;28;20032;-48
2022/08/13 02:10:47;;;;;;;6.90;3.80;;;20.60;99.90;;;;;;5052811;28;20045;-47
2022/08/13 02:13:20;;;;;;;4.95;3.95;;;20.60;99.90;;;;;;5052848;28;20037;-46
2022/08/13 02:15:47;;;;;;;7.90;4.68;;;20.60;99.90;;;;;;5053918;28;20029;-46
2022/08/13 02:18:17;;;;;;;6.63;5.03;;;20.70;99.90;;;;;;5053096;28;20120;-47
2022/08/13 02:20:45;;;;;;;8.57;4.95;;;20.70;99.90;;;;;;5053286;28;20032;-47
2022/08/13 02:23:16;;;;;;;9.70;5.28;;;20.60;99.90;;;;;;5052971;28;20025;-46
2022/08/13 02:25:45;;;;;;;8.30;4.55;;;20.60;99.90;;;;;;5009250;28;20043;-49
2022/08/13 02:28:14;;;;;;;6.20;5.07;;;20.60;99.90;;;;;;5052952;28;20033;-47
2022/08/13 02:30:41;;;;;;;5.15;3.90;;;20.60;99.90;;;;;;5052829;28;20447;-46
2022/08/13 02:33:08;;;;;;;5.22;4.15;;;20.60;99.90;;;;;;5048625;28;20021;-46
2022/08/13 02:35:35;;;;;;;8.00;4.30;;;20.60;99.90;;;;;;5053655;28;20033;-47
2022/08/13 02:38:02;;;;;;;5.30;4.45;;;20.60;99.90;;;;;;5052995;28;20139;-46
2022/08/13 02:43:12;;;;;;;5.93;4.55;;;20.60;99.90;;;;;;5049098;28;20059;-47
2022/08/13 02:45:39;;;;;;;5.05;4.35;;;20.70;99.90;;;;;;5053452;28;20020;-46
2022/08/13 02:48:05;;;;;;;5.38;4.05;;;20.70;99.90;;;;;;5052660;28;20068;-48
2022/08/13 02:50:33;;;;;;;5.78;4.20;;;20.70;99.90;;;;;;5052625;28;20048;-47
2022/08/13 02:52:59;;;;;;;6.40;4.38;;;20.60;99.90;;;;;;5052769;28;20035;-47
2022/08/13 02:55:29;;;;;;;4.63;3.97;;;20.70;99.90;;;;;;5053074;28;20086;-47
2022/08/13 02:57:55;;;;;;;5.00;4.47;;;20.60;99.90;;;;;;5052034;28;20052;-47
2022/08/13 03:00:21;;;;;;;5.70;4.35;;;20.60;99.90;;;;;;5052573;28;20021;-47
2022/08/13 03:02:48;;;;;;;5.03;4.53;;;20.60;99.90;;;;;;5052804;28;20032;-48
2022/08/13 03:05:19;;;;;;;5.97;4.25;;;20.60;99.90;;;;;;5001457;28;20052;-46
2022/08/13 03:07:47;;;;;;;5.40;4.45;;;20.60;99.90;;;;;;5006603;28;20034;-47
2022/08/13 03:10:17;;;;;;;10.73;4.75;;;20.60;99.90;;;;;;5043931;28;20040;-47
2022/08/13 03:12:51;;;;;;;6.97;4.65;;;20.60;99.90;;;;;;5051948;28;20047;-45
2022/08/13 03:15:20;;;;;;;6.50;4.53;;;20.60;99.90;;;;;;5033495;28;20044;-48
2022/08/13 03:17:46;;;;;;;10.00;5.20;;;20.50;99.90;;;;;;5051516;28;20032;-48
2022/08/13 03:20:16;;;;;;;8.07;4.60;;;20.60;99.90;;;;;;5011189;28;20045;-47
2022/08/13 03:22:52;;;;;;;5.85;4.82;;;20.50;99.90;;;;;;5051661;28;20048;-48
2022/08/13 03:25:20;;;;;;;12.20;5.70;;;20.50;99.90;;;;;;5033340;28;20033;-46
2022/08/13 03:27:47;;;;;;;8.13;5.38;;;20.50;99.90;;;;;;5029212;28;20048;-48
2022/08/13 03:30:15;;;;;;;7.03;5.70;;;20.50;99.90;;;;;;5051053;28;20037;-47
2022/08/13 03:32:45;;;;;;;5.90;4.90;;;20.60;99.90;;;;;;5051619;28;20041;-48
2022/08/13 03:35:14;;;;;;;6.47;4.60;;;20.60;99.90;;;;;;5051407;28;20059;-48
2022/08/13 03:37:42;;;;;;;6.70;4.90;;;20.80;99.90;;;;;;5044314;28;20044;-49
2022/08/13 03:40:08;;;;;;;5.43;4.57;;;20.80;99.90;;;;;;5033591;28;20041;-49
2022/08/13 03:42:35;;;;;;;6.57;5.68;;;20.90;99.90;;;;;;5016164;28;20619;-49
2022/08/13 03:45:03;;;;;;;5.97;5.20;;;20.80;99.90;;;;;;5051416;28;20065;-48
2022/08/13 03:47:30;;;;;;;9.13;5.53;;;20.80;99.90;;;;;;5051504;28;20029;-48
2022/08/13 03:49:58;;;;;;;7.78;5.40;;;20.80;99.90;;;;;;5051747;28;20048;-46
2022/08/13 03:52:24;;;;;;;7.43;5.65;;;20.80;99.90;;;;;;5051651;28;20376;-47
2022/08/13 03:54:50;;;;;;;6.40;5.15;;;20.80;99.90;;;;;;5052139;28;20122;-49
2022/08/13 03:57:17;;;;;;;9.52;5.70;;;20.80;99.90;;;;;;5051176;28;20072;-48
2022/08/13 03:59:43;;;;;;;6.10;5.40;;;20.70;99.90;;;;;;5046893;28;20396;-47
2022/08/13 04:02:12;;;;;;;6.35;5.72;;;20.60;99.90;;;;;;4998667;28;20060;-48
2022/08/13 04:04:38;;;;;;;7.55;6.10;;;20.60;99.90;;;;;;5050295;28;20075;-46
2022/08/13 04:07:04;;;;;;;7.93;5.97;;;20.60;99.90;;;;;;5051288;28;20061;-47
2022/08/13 04:09:30;;;;;;;6.10;5.50;;;20.60;99.90;;;;;;5051233;28;20056;-48
2022/08/13 04:11:56;;;;;;;7.65;6.55;;;20.50;99.90;;;;;;5000791;28;20616;-47
2022/08/13 04:14:21;;;;;;;8.15;6.82;;;20.60;99.90;;;;;;5023618;28;20068;-48
2022/08/13 04:16:47;;;;;;;7.00;6.30;;;20.60;99.90;;;;;;5051304;28;20431;-49
2022/08/13 04:19:14;;;;;;;6.40;5.80;;;20.60;99.90;;;;;;5010671;28;20049;-49
2022/08/13 04:21:40;;;;;;;6.50;5.90;;;20.60;99.90;;;;;;5030742;28;20021;-48
2022/08/13 04:24:06;;;;;;;6.70;6.03;;;20.60;99.90;;;;;;5051702;28;20037;-48
2022/08/13 04:26:33;;;;;;;8.82;5.82;;;20.70;99.90;;;;;;5004283;28;20092;-46
2022/08/13 04:29:04;;;;;;;5.90;5.20;;;20.80;99.90;;;;;;5033062;28;20036;-48
2022/08/13 04:31:30;;;;;;;11.90;6.60;;;20.80;99.90;;;;;;5051174;28;20048;-47
2022/08/13 04:33:56;;;;;;;7.45;6.60;;;20.90;99.90;;;;;;5052365;28;20507;-47
2022/08/13 04:36:22;;;;;;;10.15;6.43;;;20.80;99.90;;;;;;5052345;28;20120;-49
2022/08/13 04:38:48;;;;;;;9.70;6.88;;;20.90;99.90;;;;;;5049360;28;20131;-47
2022/08/13 04:41:14;;;;;;;9.60;6.82;;;20.90;99.90;;;;;;5002827;28;20051;-48
2022/08/13 04:43:40;;;;;;;7.32;6.63;;;20.90;99.90;;;;;;5054661;28;20028;-47
2022/08/13 04:46:05;;;;;;;8.65;7.40;;;20.90;99.90;;;;;;5055356;28;20036;-48
2022/08/13 04:48:35;;;;;;;10.23;7.80;;;20.90;99.90;;;;;;5055651;28;20381;-47
2022/08/13 04:51:00;;;;;;;9.27;8.05;;;21.00;99.90;;;;;;5054531;28;20128;-49
2022/08/13 04:53:35;;;;;;;9.55;7.45;;;21.00;99.90;;;;;;5035832;28;20132;-46
2022/08/13 04:56:02;;;;;;;11.02;7.85;;;21.00;99.90;;;;;;5051071;28;20032;-48
2022/08/13 04:58:33;;;;;;;9.15;7.55;;;21.00;99.90;;;;;;5054815;28;20769;-47
2022/08/13 05:01:00;;;;;;;8.82;7.40;;;21.00;99.90;;;;;;5055123;28;20476;-49
2022/08/13 05:03:26;;;;;;;8.70;7.47;;;20.90;99.90;;;;;;5012549;28;20049;-47
2022/08/13 05:05:52;;;;;;;7.47;6.00;;;20.90;99.90;;;;;;5012314;28;20046;-46
2022/08/13 05:08:19;;;;;;;8.63;7.07;;;20.80;99.90;;;;;;5012217;28;20120;-48
2022/08/13 05:10:47;;;;;;;7.40;6.70;;;20.90;99.90;;;;;;4994696;28;20053;-49
2022/08/13 05:13:28;;;;;;;9.23;7.68;;;20.70;99.90;;;;;;5009683;28;20520;-46
2022/08/13 05:15:56;;;;;;;7.30;6.60;;;20.70;99.90;;;;;;4995634;28;20038;-47
2022/08/13 05:18:23;;;;;;;8.27;6.95;;;20.60;99.90;;;;;;5012146;28;20046;-48
2022/08/13 05:20:50;;;;;;;8.27;7.05;;;20.70;99.90;;;;;;5012712;28;20095;-47
2022/08/13 05:23:16;;;;;;;8.10;7.30;;;20.70;99.90;;;;;;5012108;28;20068;-46
2022/08/13 05:25:42;;;;;;;8.93;6.72;;;20.60;99.90;;;;;;5011885;28;20120;-48
2022/08/13 05:28:09;;;;;;;7.68;6.88;;;20.70;99.90;;;;;;5011712;28;20406;-48
2022/08/13 05:30:38;;;;;;;7.57;6.40;;;20.60;99.90;;;;;;5012714;28;20120;-47
2022/08/13 05:33:14;;;;;;;7.88;6.60;;;20.50;99.90;;;;;;5011793;28;20500;-48
2022/08/13 05:35:42;;;;;;;6.65;6.05;;;20.40;99.90;;;;;;5002403;28;20044;-48
2022/08/13 05:38:09;;;;;;;7.63;6.40;;;20.20;99.90;;;;;;5000513;28;20085;-47
2022/08/13 05:40:35;;;;;;;7.90;7.07;;;20.20;99.90;;;;;;5008232;28;20437;-46
2022/08/13 05:43:03;;;;;;;6.82;6.13;;;20.30;99.90;;;;;;4999346;28;20038;-47
2022/08/13 05:45:29;;;;;;;7.47;6.72;;;20.30;99.90;;;;;;5010769;28;20575;-48
2022/08/13 05:47:55;;;;;;;6.45;5.85;;;20.30;99.90;;;;;;5005804;28;20045;-47
2022/08/13 05:50:22;;;;;;;6.57;5.90;;;20.20;99.90;;;;;;5001535;28;20055;-47
2022/08/13 05:52:47;;;;;;;7.95;5.93;;;20.10;99.90;;;;;;4999025;28;20080;-49
2022/08/13 05:55:14;;;;;;;7.35;6.32;;;19.90;99.90;;;;;;4992065;28;20042;-47
2022/08/13 05:57:40;;;;;;;6.85;6.10;;;19.90;99.90;;;;;;4983534;28;20030;-50
2022/08/13 06:05:37;;;;;;;12.10;8.43;;;19.70;99.90;;;;;;4970324;28;20073;-47
2022/08/13 06:08:05;;;;;;;12.52;7.97;;;19.60;99.90;;;;;;5007234;28;20108;-48
2022/08/13 06:10:31;;;;;;;8.70;7.32;;;19.50;99.90;;;;;;4978497;28;20058;-47
2022/08/13 06:12:57;;;;;;;7.22;6.50;;;19.50;99.90;;;;;;5009378;28;20033;-47
2022/08/13 06:15:23;;;;;;;7.18;6.07;;;19.60;99.90;;;;;;5002648;28;20034;-46
2022/08/13 06:17:51;;;;;;;8.18;7.38;;;19.60;99.90;;;;;;5010646;28;20042;-47
2022/08/13 06:20:20;;;;;;;7.35;6.65;;;19.60;99.90;;;;;;5010745;28;20113;-47
2022/08/13 06:22:52;;;;;;;16.35;8.23;;;19.80;99.90;;;;;;4993712;28;20104;-47
2022/08/13 06:25:19;;;;;;;10.88;9.15;;;19.90;99.90;;;;;;5006410;28;20379;-47
2022/08/13 06:27:45;;;;;;;12.70;9.20;;;19.90;99.90;;;;;;5010634;28;20049;-47
2022/08/13 06:30:14;;;;;;;14.00;9.68;;;19.80;99.90;;;;;;5011464;28;20034;-47
2022/08/13 06:32:42;;;;;;;14.32;10.60;;;19.90;99.90;;;;;;4996346;28;20457;-46
2022/08/13 06:35:09;;;;;;;18.88;13.38;;;20.00;99.90;;;;;;5051265;28;20183;-47
2022/08/13 06:37:35;;;;;;;16.13;12.88;;;19.80;99.90;;;;;;5051466;28;20488;-46
2022/08/13 06:40:01;;;;;;;15.10;11.50;;;19.90;99.90;;;;;;5011666;28;20046;-46
2022/08/13 06:42:30;;;;;;;13.30;10.43;;;19.90;99.90;;;;;;5011160;28;20038;-46
2022/08/13 06:44:58;;;;;;;12.82;10.48;;;20.00;99.90;;;;;;5023591;28;20056;-45
2022/08/13 06:47:29;;;;;;;15.43;12.25;;;20.00;99.90;;;;;;5053156;28;20097;-46
2022/08/13 06:49:55;;;;;;;17.83;12.48;;;20.00;99.90;;;;;;5052571;28;20091;-45
2022/08/13 06:52:21;;;;;;;13.77;10.05;;;;;;;;;;5052555;28;20029;-45
2022/08/13 06:54:48;;;;;;;9.55;8.05;;;19.80;99.90;;;;;;5052680;28;20033;-46
2022/08/13 06:57:14;;;;;;;8.20;7.40;;;19.80;99.90;;;;;;5052548;28;20028;-46
2022/08/13 06:59:41;;;;;;;7.97;7.18;;;19.70;99.90;;;;;;4968233;28;20132;-46
2022/08/13 07:02:11;;;;;;;10.48;7.53;;;19.80;99.90;;;;;;5052512;28;20040;-46
2022/08/13 07:04:37;;;;;;;7.60;6.90;;;20.00;99.90;;;;;;5053037;28;20047;-46
2022/08/13 07:07:03;;;;;;;7.90;5.97;;;19.90;99.90;;;;;;5052279;28;20037;-46
2022/08/13 07:09:32;;;;;;;7.75;7.00;;;19.50;99.90;;;;;;5033318;28;20052;-47
2022/08/13 07:11:59;;;;;;;9.25;7.22;;;19.70;99.90;;;;;;5052361;28;20074;-46
2022/08/13 07:14:24;;;;;;;6.32;5.70;;;19.60;99.90;;;;;;5011100;28;20045;-47
2022/08/13 07:16:50;;;;;;;8.10;6.70;;;19.40;99.90;;;;;;5051089;28;20044;-46
2022/08/13 07:19:16;;;;;;;7.78;6.90;;;19.60;99.90;;;;;;5051680;28;20044;-46
2022/08/13 07:21:42;;;;;;;6.40;5.80;;;19.80;99.90;;;;;;5050955;28;20393;-46
2022/08/13 07:24:10;;;;;;;10.07;6.90;;;19.70;99.90;;;;;;5051743;28;20044;-46
2022/08/13 07:26:36;;;;;;;8.27;7.38;;;17.40;99.90;;;;;;5050897;28;20036;-46
2022/08/13 07:29:05;;;;;;;7.95;6.72;;;19.50;99.90;;;;;;4982359;28;20041;-46
2022/08/13 07:31:34;;;;;;;7.80;6.80;;;19.60;99.90;;;;;;5051341;28;20041;-46
2022/08/13 07:34:04;;;;;;;8.80;7.68;;;19.70;99.90;;;;;;5051793;28;20464;-47
2022/08/13 07:36:36;;;;;;;8.20;7.40;;;19.80;99.90;;;;;;5051374;28;20047;-47
2022/08/13 07:39:06;;;;;;;8.63;7.20;;;19.70;99.90;;;;;;5047233;28;20047;-46
2022/08/13 07:41:35;;;;;;;8.75;7.85;;;19.80;99.90;;;;;;5051510;28;20025;-46
2022/08/13 07:44:02;;;;;;;8.93;7.60;;;19.80;99.90;;;;;;5051675;28;20033;-46
2022/08/13 07:46:29;;;;;;;9.50;7.70;;;19.90;99.90;;;;;;5002011;28;20045;-47
2022/08/13 07:48:56;;;;;;;8.68;7.50;;;20.00;99.90;;;;;;5021895;28;20091;-47
2022/08/13 07:51:22;;;;;;;9.15;7.63;;;20.00;99.90;;;;;;5051067;28;20160;-47
2022/08/13 07:53:50;;;;;;;7.78;6.53;;;20.00;99.90;;;;;;4983411;28;20071;-47
2022/08/13 07:56:29;;;;;;;10.15;7.05;;;20.00;99.90;;;;;;5050212;28;20028;-47
2022/08/13 07:59:02;;;;;;;9.35;7.55;;;20.00;99.90;;;;;;5012907;28;20041;-47
2022/08/13 08:01:30;;;;;;;8.27;7.45;;;20.10;99.90;;;;;;5046321;28;20067;-47
2022/08/13 08:04:03;;;;;;;8.60;7.20;;;20.20;99.90;;;;;;5044019;28;20056;-47
2022/08/13 08:06:30;;;;;;;7.63;6.82;;;20.30;99.90;;;;;;5010413;28;20096;-47
2022/08/13 08:08:59;;;;;;;10.48;7.22;;;20.40;99.90;;;;;;5048161;28;20028;-47
2022/08/13 08:14:10;;;;;;;8.38;6.75;;;20.60;99.90;;;;;;5043225;28;20036;-47
2022/08/13 08:16:36;;;;;;;6.72;6.13;;;20.70;99.90;;;;;;5027518;28;20404;-47
2022/08/13 08:19:04;;;;;;;6.07;5.47;;;20.90;99.90;;;;;;5012699;28;20130;-47
2022/08/13 08:21:31;;;;;;;10.30;6.25;;;20.90;99.90;;;;;;5042476;28;20030;-48
2022/08/13 08:23:59;;;;;;;6.90;5.35;;;21.30;99.90;;;;;;5048856;28;20593;-47
2022/08/13 08:26:27;;;;;;;6.90;6.18;;;21.50;99.90;;;;;;5049242;28;20140;-47
2022/08/13 08:28:55;;;;;;;5.72;5.13;;;21.60;99.90;;;;;;5047375;28;20024;-47
2022/08/13 08:31:21;;;;;;;6.43;5.47;;;21.90;99.90;;;;;;5027887;28;20487;-48
2022/08/13 08:33:47;;;;;;;5.60;5.10;;;22.20;99.90;;;;;;5050084;28;20072;-47
2022/08/13 08:36:14;;;;;;;8.57;6.55;;;22.40;99.90;;;;;;5031537;28;20082;-47
2022/08/13 08:44:23;;;;;;;7.07;6.15;;;23.10;99.90;;;;;;5049658;28;20040;-47
2022/08/13 08:46:59;;;;;;;8.00;6.78;;;23.00;99.90;;;;;;5050009;28;20060;-48
2022/08/13 08:49:25;;;;;;;6.50;5.63;;;23.10;99.90;;;;;;5050272;28;20030;-47
2022/08/13 08:51:52;;;;;;;6.95;6.07;;;23.00;99.90;;;;;;5030176;28;20049;-47
2022/08/13 08:54:21;;;;;;;6.88;5.25;;;23.00;99.90;;;;;;5045842;28;20068;-47
2022/08/13 08:56:47;;;;;;;6.85;6.25;;;22.90;99.90;;;;;;5049681;28;20032;-47
2022/08/13 08:59:15;;;;;;;8.82;6.18;;;22.70;99.90;;;;;;5049706;28;20557;-47
2022/08/13 09:01:43;;;;;;;5.93;5.35;;;22.70;99.90;;;;;;5045686;28;20055;-47
2022/08/13 09:04:11;;;;;;;5.55;5.05;;;22.80;99.90;;;;;;5049719;28;20064;-47
2022/08/13 09:06:38;;;;;;;6.63;5.57;;;23.00;99.90;;;;;;5046743;28;20440;-47
2022/08/13 09:09:06;;;;;;;6.38;5.43;;;22.90;99.90;;;;;;5047967;28;20033;-47
2022/08/13 09:11:34;;;;;;;5.20;4.70;;;23.00;99.90;;;;;;5049271;28;20045;-47
2022/08/13 09:14:08;;;;;;;5.68;4.82;;;23.20;99.90;;;;;;5049713;28;20036;-47
2022/08/13 09:16:38;;;;;;;5.40;4.90;;;23.10;99.90;;;;;;5048556;28;20036;-48
2022/08/13 09:19:09;;;;;;;8.30;5.22;;;23.20;99.90;;;;;;5048160;28;20040;-47
2022/08/13 09:21:46;;;;;;;5.20;4.70;;;23.30;99.90;;;;;;5052519;28;20032;-47
2022/08/13 09:24:15;;;;;;;6.35;5.40;;;23.40;99.90;;;;;;5033419;28;20033;-47
2022/08/13 09:26:51;;;;;;;5.72;4.65;;;23.50;99.90;;;;;;5052421;28;20037;-47
2022/08/13 09:29:23;;;;;;;5.78;4.50;;;23.90;99.90;;;;;;5048815;28;20071;-47
2022/08/13 09:31:50;;;;;;;8.05;5.05;;;23.70;99.90;;;;;;5051705;28;20136;-46
2022/08/13 09:34:17;;;;;;;4.95;4.45;;;24.00;99.90;;;;;;5051351;28;20036;-47
2022/08/13 09:36:44;;;;;;;5.18;3.97;;;24.20;99.90;;;;;;5052814;28;20025;-46
2022/08/13 09:39:26;;;;;;;5.00;4.50;;;23.80;99.90;;;;;;5053405;28;20025;-46
2022/08/13 09:41:53;;;;;;;4.97;3.83;;;24.10;99.90;;;;;;5048871;28;20036;-47
2022/08/13 09:44:19;;;;;;;4.88;3.72;;;;;;;;;;5052546;28;20112;-49
2022/08/13 09:46:46;;;;;;;4.38;3.97;;;;;;;;;;5034812;28;20037;-49
2022/08/13 09:49:11;;;;;;;8.35;4.43;;;24.90;99.90;;;;;;5033018;28;20446;-48
2022/08/13 09:51:38;;;;;;;4.35;3.67;;;25.20;99.90;;;;;;5050008;28;20098;-49
2022/08/13 09:54:07;;;;;;;4.82;4.15;;;25.00;99.90;;;;;;5029929;28;20044;-48
2022/08/13 09:56:37;;;;;;;4.68;4.18;;;24.80;99.90;;;;;;5053534;28;20025;-48
2022/08/13 09:59:10;;;;;;;4.30;3.90;;;24.70;99.90;;;;;;5052301;28;20049;-49
2022/08/13 10:01:37;;;;;;;4.20;3.80;;;24.80;99.90;;;;;;5051338;28;20040;-49
2022/08/13 10:04:04;;;;;;;4.38;3.97;;;24.80;99.90;;;;;;5052603;28;20028;-48
2022/08/13 10:06:32;;;;;;;4.35;3.90;;;25.30;99.90;;;;;;5052399;28;20040;-48
2022/08/13 10:09:00;;;;;;;4.88;4.38;;;25.30;99.90;;;;;;5015017;28;20100;-48
2022/08/13 10:11:27;;;;;;;6.15;4.05;;;25.10;99.90;;;;;;5052992;28;20120;-48
2022/08/13 10:13:54;;;;;;;4.60;3.80;;;25.40;99.90;;;;;;5051880;28;20388;-48
2022/08/13 10:16:21;;;;;;;4.95;4.55;;;24.90;99.90;;;;;;5051857;28;20412;-51
2022/08/13 10:18:46;;;;;;;4.65;4.15;;;25.50;99.90;;;;;;5048220;28;20395;-45
2022/08/13 10:21:14;;;;;;;4.20;3.80;;;25.60;99.90;;;;;;5050109;28;20021;-48
2022/08/13 10:23:40;;;;;;;5.93;4.15;;;25.20;99.90;;;;;;5051585;28;20064;-47
2022/08/13 10:26:07;;;;;;;6.70;3.55;;;25.70;99.90;;;;;;5046673;28;20028;-50
2022/08/13 10:28:34;;;;;;;4.80;4.18;;;25.40;99.90;;;;;;5051987;28;20044;-57
2022/08/13 10:31:05;;;;;;;4.10;3.67;;;25.30;99.90;;;;;;5050934;28;20044;-50
2022/08/13 10:33:32;;;;;;;5.43;4.00;;;25.50;99.90;;;;;;5047587;28;20253;-50
2022/08/13 10:35:59;;;;;;;5.78;4.25;;;25.60;99.90;;;;;;5050339;28;20040;-50
2022/08/13 10:38:26;;;;;;;3.97;3.60;;;25.70;99.90;;;;;;5050902;28;20033;-50
2022/08/13 10:40:56;;;;;;;6.20;4.20;;;25.50;99.90;;;;;;5049749;28;20033;-47
2022/08/13 10:43:22;;;;;;;4.03;3.63;;;25.40;99.90;;;;;;5021129;28;20051;-50
2022/08/13 10:45:50;;;;;;;5.35;4.25;;;25.40;99.90;;;;;;5046581;28;20420;-49
2022/08/13 10:48:17;;;;;;;5.10;4.10;;;25.90;99.90;;;;;;4998183;28;20052;-49
2022/08/13 10:50:43;;;;;;;6.18;3.88;;;26.10;99.90;;;;;;5049027;28;20055;-48
2022/08/13 10:53:55;;;;;;;4.38;3.50;;;26.10;99.90;;;;;;5012864;28;20175;-48
2022/08/13 10:55:56;;;;;;;4.25;3.85;;;26.20;99.90;;;;;;5050314;28;20120;-48
2022/08/13 10:58:22;;;;;;;4.47;3.10;;;26.40;99.90;;;;;;5050381;28;20057;-47
2022/08/13 11:00:47;;;;;;;4.80;3.85;;;26.20;99.90;;;;;;5045088;28;20029;-47
2022/08/13 11:03:15;;;;;;;5.13;3.53;;;26.50;99.90;;;;;;5049142;28;20029;-47
2022/08/13 11:05:41;;;;;;;3.35;2.95;;;26.70;99.90;;;;;;5030998;28;20044;-48
2022/08/13 11:08:07;;;;;;;4.03;3.63;;;26.80;99.90;;;;;;5049506;28;20045;-48
2022/08/13 11:10:35;;;;;;;5.57;3.58;;;26.60;99.90;;;;;;5050666;28;20064;-48
2022/08/13 11:13:01;;;;;;;4.35;3.45;;;;;;;;;;5029318;28;20047;-47
2022/08/13 11:15:27;;;;;;;4.75;3.42;;;;;;;;;;5050053;28;20028;-47
2022/08/13 11:17:54;;;;;;;407.77;366.73;;;;;;;;;;5051112;28;20121;-48
2022/08/13 11:20:22;;;;;;;11.65;8.27;;;;;;;;;;5049459;28;20500;-48
2022/08/13 11:22:49;;;;;;;5.32;3.45;;;;;;;;;;5048369;28;20472;-49
2022/08/13 11:25:16;;;;;;;5.22;3.58;;;27.50;99.90;;;;;;5007572;28;20030;-48
2022/08/13 11:27:42;;;;;;;4.20;3.28;;;28.00;99.90;;;;;;4992493;28;20426;-48
2022/08/13 11:30:09;;;;;;;3.92;3.20;;;28.10;99.90;;;;;;5007939;28;20046;-48
2022/08/13 11:32:36;;;;;;;4.32;3.35;;;28.50;99.90;;;;;;5008242;28;20097;-48
2022/08/13 11:35:03;;;;;;;3.83;3.38;;;27.50;99.90;;;;;;5009487;28;20460;-49
2022/08/13 11:37:29;;;;;;;4.85;3.72;;;27.50;99.90;;;;;;5007868;28;20046;-48
2022/08/13 11:39:54;;;;;;;4.55;3.40;;;27.80;99.90;;;;;;4976256;28;20697;-48
2022/08/13 11:42:20;;;;;;;4.05;3.20;;;27.80;99.90;;;;;;5008038;28;20033;-48
2022/08/13 11:44:46;;;;;;;4.38;3.10;;;;;;;;;;5008504;28;20489;-53
2022/08/13 11:47:12;;;;;;;4.93;3.45;;;;;;;;;;4973110;28;20099;-52
2022/08/13 11:49:38;;;;;;;5.05;3.42;;;28.80;99.90;;;;;;4975771;28;20072;-52
2022/08/13 11:52:04;;;;;;;4.53;3.53;;;;;;;;;;5006428;28;20080;-49
2022/08/13 11:54:30;;;;;;;4.60;3.28;;;;;;;;;;5007473;28;20112;-49
2022/08/13 11:56:56;;;;;;;3.85;3.03;;;29.30;99.90;;;;;;5003687;28;20120;-50
2022/08/13 11:59:22;;;;;;;5.07;3.58;;;;;;;;;;5040116;28;20183;-50
2022/08/13 12:01:48;;;;;;;4.38;3.10;;;;;;;;;;5050523;28;20159;-50
2022/08/13 12:04:14;;;;;;;4.85;3.50;;;;;;;;;;5051057;28;20017;-51
2022/08/13 12:06:42;;;;;;;4.72;3.10;;;;;;;;;;5050613;28;20384;-51
2022/08/13 12:09:07;;;;;;;4.35;3.78;;;28.60;99.90;;;;;;5046856;28;20028;-50
2022/08/13 12:11:35;;;;;;;4.43;3.50;;;28.30;99.90;;;;;;5011527;28;20040;-51
2022/08/13 12:14:01;;;;;;;6.15;3.60;;;27.80;99.90;;;;;;5028760;28;20118;-51
2022/08/13 12:16:27;;;;;;;4.03;3.60;;;28.20;99.90;;;;;;5015912;28;20037;-51
2022/08/13 12:18:53;;;;;;;4.53;3.15;;;28.10;99.90;;;;;;5050613;28;20039;-50
2022/08/13 12:21:19;;;;;;;3.70;3.38;;;28.50;99.90;;;;;;5043931;28;20503;-50
2022/08/13 12:23:44;;;;;;;3.97;3.10;;;28.80;99.90;;;;;;5050491;28;20679;-51
2022/08/13 12:26:10;;;;;;;4.05;3.60;;;28.20;99.90;;;;;;5051062;28;20075;-51
2022/08/13 12:28:36;;;;;;;7.40;3.45;;;27.90;99.90;;;;;;5050211;28;20029;-51
2022/08/13 12:31:07;;;;;;;3.63;2.88;;;27.70;99.90;;;;;;5050124;28;20115;-51
2022/08/13 12:33:34;;;;;;;4.72;3.25;;;28.20;99.90;;;;;;5050291;28;20037;-50
2022/08/13 12:36:00;;;;;;;4.25;3.25;;;28.00;99.90;;;;;;5048566;28;20021;-50
2022/08/13 12:38:27;;;;;;;7.82;3.58;;;27.90;99.90;;;;;;5050121;28;20031;-51
2022/08/13 12:40:53;;;;;;;4.97;3.53;;;27.70;99.90;;;;;;5046222;28;20033;-50
2022/08/13 12:44:08;;;;;;;7.70;3.50;;;28.00;99.90;;;;;;5049943;28;20079;-51
2022/08/13 12:46:34;;;;;;;4.97;3.22;;;28.30;99.90;;;;;;5045771;28;20032;-51
2022/08/13 12:49:00;;;;;;;4.85;3.60;;;27.90;99.90;;;;;;5046628;28;20033;-51
2022/08/13 12:51:26;;;;;;;6.88;3.45;;;28.20;99.90;;;;;;5049370;28;20130;-51
2022/08/13 12:53:52;;;;;;;3.83;3.00;;;27.90;99.90;;;;;;5050186;28;20460;-50
2022/08/13 12:56:18;;;;;;;4.93;3.20;;;27.90;99.90;;;;;;5054058;28;20078;-50
2022/08/13 12:58:44;;;;;;;4.15;3.22;;;28.10;99.90;;;;;;5053907;28;20045;-50
2022/08/13 13:01:10;;;;;;;4.78;3.17;;;28.20;99.90;;;;;;5054227;28;20506;-50
2022/08/13 13:03:36;;;;;;;3.38;3.08;;;28.50;99.90;;;;;;5034707;28;20049;-50
2022/08/13 13:06:02;;;;;;;4.53;3.00;;;28.60;99.90;;;;;;5054450;28;20354;-50
2022/08/13 13:08:30;;;;;;;3.65;3.03;;;28.60;99.90;;;;;;5017078;28;20384;-50
2022/08/13 13:10:59;;;;;;;4.10;3.20;;;28.70;99.90;;;;;;5054071;28;20436;-50
2022/08/13 13:13:26;;;;;;;4.40;2.97;;;;;;;;;;5053733;28;20020;-50
2022/08/13 13:15:53;;;;;;;4.60;3.55;;;29.40;99.90;;;;;;5033845;28;20500;-50